Time;durP1;ratioP1;P1;durP2;ratioP2;P2;SDS_P1;SDS_P2;PMS_P1;PMS_P2;Temp;Humidity;BMP_temperature;BMP_pressure;BME280_temperature;BME280_humidity;BME280_pressure;Samples;Min_cycle;Max_cycle;Signal;HPM_P1;HPM_P2
2022/08/13 00:00:00;;;;;;;2.63;2.10;;;25.80;99.90;;;;;;1043699;28;20048;-65
2022/08/13 00:00:32;;;;;;;2.57;2.33;;;25.80;99.90;;;;;;1043495;28;20025;-67
2022/08/13 00:01:05;;;;;;;2.42;2.00;;;25.80;99.90;;;;;;1043804;28;20850;-65
2022/08/13 00:01:40;;;;;;;2.42;2.22;;;25.80;99.90;;;;;;1042955;28;20100;-65
2022/08/13 00:02:16;;;;;;;3.30;2.58;;;25.80;99.90;;;;;;1043574;28;20013;-65
2022/08/13 00:02:47;;;;;;;3.72;2.17;;;25.80;99.90;;;;;;1043216;28;20486;-66
2022/08/13 00:03:19;;;;;;;3.23;2.53;;;25.80;99.90;;;;;;1043550;28;20460;-65
2022/08/13 00:03:52;;;;;;;2.50;2.20;;;25.80;99.90;;;;;;1043340;28;20106;-65
2022/08/13 00:04:26;;;;;;;2.38;2.10;;;25.80;99.90;;;;;;1043743;28;20542;-67
2022/08/13 00:05:05;;;;;;;3.92;2.00;;;25.80;99.90;;;;;;1043322;28;20048;-65
2022/08/13 00:05:36;;;;;;;4.32;2.17;;;25.80;99.90;;;;;;1043601;28;20411;-65
2022/08/13 00:06:10;;;;;;;2.60;2.03;;;25.70;99.90;;;;;;1043518;28;20091;-65
2022/08/13 00:07:12;;;;;;;2.50;2.30;;;25.70;99.90;;;;;;1043575;28;20424;-66
2022/08/13 00:07:42;;;;;;;3.77;2.43;;;25.70;99.90;;;;;;1043206;28;20016;-65
2022/08/13 00:08:14;;;;;;;3.73;2.20;;;25.70;99.90;;;;;;1043237;28;20027;-67
2022/08/13 00:08:48;;;;;;;2.65;2.40;;;25.70;99.90;;;;;;1042910;28;20075;-65
2022/08/13 00:09:18;;;;;;;3.38;2.40;;;25.70;99.90;;;;;;1043248;28;20017;-67
2022/08/13 00:09:50;;;;;;;2.57;2.30;;;25.70;99.90;;;;;;1043018;28;20025;-65
2022/08/13 00:10:38;;;;;;;2.88;2.40;;;25.70;99.90;;;;;;1043637;28;20043;-66
2022/08/13 00:12:56;;;;;;;6.60;2.33;;;25.70;99.90;;;;;;1043408;28;20481;-65
2022/08/13 00:12:57;;;;;;;2.50;2.30;;;25.70;99.90;;;;;;1043456;28;20079;-65
2022/08/13 00:13:28;;;;;;;2.30;2.10;;;25.70;99.90;;;;;;1043567;28;20025;-65
2022/08/13 00:14:00;;;;;;;4.33;2.60;;;25.70;99.90;;;;;;1043457;28;20071;-65
2022/08/13 00:14:35;;;;;;;2.75;2.30;;;25.60;99.90;;;;;;1043373;28;20037;-65
2022/08/13 00:15:12;;;;;;;3.38;2.42;;;25.60;99.90;;;;;;1043401;28;20139;-64
2022/08/13 00:15:44;;;;;;;2.58;2.30;;;25.60;99.90;;;;;;1043497;28;20463;-65
2022/08/13 00:16:14;;;;;;;2.83;2.25;;;25.60;99.90;;;;;;1043576;28;20078;-65
2022/08/13 00:16:45;;;;;;;3.00;1.83;;;25.60;99.90;;;;;;1043487;28;20029;-66
2022/08/13 00:17:17;;;;;;;4.97;2.50;;;25.60;99.90;;;;;;1043479;28;20798;-65
2022/08/13 00:17:49;;;;;;;2.85;2.55;;;25.60;99.90;;;;;;1043436;28;20171;-65
2022/08/13 00:18:24;;;;;;;2.38;2.00;;;25.60;99.90;;;;;;1043383;28;20028;-65
2022/08/13 00:18:55;;;;;;;2.67;2.22;;;25.60;99.90;;;;;;1043382;28;20021;-65
2022/08/13 00:19:30;;;;;;;3.53;2.90;;;25.60;99.90;;;;;;1043297;28;20108;-64
2022/08/13 00:20:01;;;;;;;3.28;1.90;;;25.60;99.90;;;;;;1043428;28;20598;-65
2022/08/13 00:20:48;;;;;;;3.20;2.47;;;25.60;99.90;;;;;;1043283;28;20028;-65
2022/08/13 00:21:18;;;;;;;2.90;2.33;;;25.60;99.90;;;;;;1043681;28;20384;-65
2022/08/13 00:21:50;;;;;;;2.80;2.30;;;25.60;99.90;;;;;;1042870;28;20736;-65
2022/08/13 00:22:22;;;;;;;3.10;1.80;;;25.60;99.90;;;;;;1043265;28;20036;-65
2022/08/13 00:22:54;;;;;;;2.67;2.20;;;25.60;99.90;;;;;;1042915;28;20909;-65
2022/08/13 00:23:28;;;;;;;3.20;1.98;;;25.60;99.90;;;;;;1043212;28;20045;-65
2022/08/13 00:23:58;;;;;;;2.67;2.40;;;25.50;99.90;;;;;;1043534;28;20092;-66
2022/08/13 00:24:29;;;;;;;2.27;2.07;;;25.60;99.90;;;;;;1043327;28;20039;-65
2022/08/13 00:25:04;;;;;;;2.85;2.20;;;25.60;99.90;;;;;;1043462;28;20637;-65
2022/08/13 00:25:35;;;;;;;2.47;2.10;;;25.60;99.90;;;;;;1043163;28;20017;-65
2022/08/13 00:26:06;;;;;;;2.33;2.05;;;25.60;99.90;;;;;;1043518;28;20102;-66
2022/08/13 00:26:36;;;;;;;3.40;2.20;;;25.50;99.90;;;;;;1043483;28;20120;-65
2022/08/13 00:27:07;;;;;;;2.90;2.00;;;25.50;99.90;;;;;;1043228;28;20532;-66
2022/08/13 00:27:38;;;;;;;2.17;1.92;;;25.50;99.90;;;;;;1043475;28;20478;-65
2022/08/13 00:28:09;;;;;;;2.17;1.97;;;25.50;99.90;;;;;;1043352;28;20574;-65
2022/08/13 00:28:40;;;;;;;2.83;2.00;;;25.50;99.90;;;;;;1039105;28;20025;-65
2022/08/13 00:29:11;;;;;;;4.63;2.60;;;25.50;99.90;;;;;;1039405;28;20025;-66
2022/08/13 00:29:41;;;;;;;3.50;1.97;;;25.50;99.90;;;;;;1039246;28;20095;-65
2022/08/13 00:30:15;;;;;;;2.63;1.87;;;25.50;99.90;;;;;;1039266;28;20072;-66
2022/08/13 00:30:47;;;;;;;3.08;2.05;;;25.50;99.90;;;;;;1039190;28;20487;-65
2022/08/13 00:31:17;;;;;;;3.78;2.40;;;25.50;99.90;;;;;;1038730;28;20081;-65
2022/08/13 00:31:50;;;;;;;2.73;2.20;;;25.50;99.90;;;;;;1038828;28;20014;-66
2022/08/13 00:32:29;;;;;;;2.70;2.20;;;25.50;99.90;;;;;;1039015;28;20014;-65
2022/08/13 00:33:05;;;;;;;4.38;2.30;;;25.50;99.90;;;;;;1039040;28;20928;-65
2022/08/13 00:33:36;;;;;;;2.78;2.05;;;25.50;99.90;;;;;;1039259;28;20025;-65
2022/08/13 00:34:07;;;;;;;3.00;2.10;;;25.50;99.90;;;;;;1039252;28;20190;-65
2022/08/13 00:34:38;;;;;;;2.80;2.20;;;25.50;99.90;;;;;;1039397;28;20036;-65
2022/08/13 00:35:09;;;;;;;2.53;1.95;;;25.50;99.90;;;;;;1039075;28;20025;-71
2022/08/13 00:35:41;;;;;;;2.53;2.10;;;25.50;99.90;;;;;;1039382;28;20021;-66
2022/08/13 00:36:12;;;;;;;2.88;1.98;;;25.40;99.90;;;;;;1039244;28;20033;-65
2022/08/13 00:36:43;;;;;;;2.97;2.13;;;25.40;99.90;;;;;;1039372;28;20017;-65
2022/08/13 00:37:13;;;;;;;2.30;2.10;;;25.50;99.90;;;;;;1039277;28;20017;-65
2022/08/13 00:37:44;;;;;;;3.37;2.07;;;25.40;99.90;;;;;;1039221;28;20451;-65
2022/08/13 00:38:18;;;;;;;5.10;2.10;;;25.40;99.90;;;;;;1039209;28;20128;-65
2022/08/13 00:38:49;;;;;;;2.13;1.83;;;25.40;99.90;;;;;;1039107;28;20292;-65
2022/08/13 00:39:20;;;;;;;3.97;2.35;;;25.40;99.90;;;;;;1040162;28;20029;-66
2022/08/13 00:39:50;;;;;;;2.10;1.90;;;25.40;99.90;;;;;;1043278;28;20079;-65
2022/08/13 00:40:22;;;;;;;3.17;2.30;;;25.40;99.90;;;;;;1043551;28;20071;-66
2022/08/13 00:40:57;;;;;;;1.88;1.77;;;25.40;99.90;;;;;;1043043;28;20060;-65
2022/08/13 00:41:37;;;;;;;3.47;1.80;;;25.40;99.90;;;;;;1043323;28;20017;-65
2022/08/13 00:42:08;;;;;;;2.47;2.13;;;25.40;99.90;;;;;;1043445;28;20029;-65
2022/08/13 00:42:39;;;;;;;2.35;1.90;;;25.30;99.90;;;;;;1043224;28;20029;-66
2022/08/13 00:43:10;;;;;;;2.40;1.90;;;25.40;99.90;;;;;;1043323;28;20033;-65
2022/08/13 00:43:40;;;;;;;2.30;1.90;;;25.40;99.90;;;;;;1043199;28;20064;-65
2022/08/13 00:44:14;;;;;;;3.57;2.07;;;25.30;99.90;;;;;;1043697;28;20021;-65
2022/08/13 00:44:44;;;;;;;2.00;1.80;;;25.30;99.90;;;;;;1043177;28;20029;-65
2022/08/13 00:45:15;;;;;;;2.00;1.77;;;25.30;99.90;;;;;;1043458;28;20017;-65
2022/08/13 00:45:46;;;;;;;2.33;1.90;;;25.30;99.90;;;;;;1043123;28;20028;-64
2022/08/13 00:46:18;;;;;;;2.45;1.92;;;25.30;99.90;;;;;;1043578;28;20031;-65
2022/08/13 00:48:41;;;;;;;2.13;1.92;;;25.30;99.90;;;;;;1043168;28;20032;-65
2022/08/13 00:48:46;;;;;;;3.50;2.42;;;25.30;99.90;;;;;;1039251;28;20110;-64
2022/08/13 00:49:17;;;;;;;2.30;1.98;;;25.30;99.90;;;;;;1039003;28;20076;-65
2022/08/13 00:49:47;;;;;;;2.57;2.10;;;25.30;99.90;;;;;;1038534;28;20033;-64
2022/08/13 00:50:18;;;;;;;4.67;2.33;;;25.30;99.90;;;;;;1039028;28;20025;-65
2022/08/13 00:50:50;;;;;;;4.53;2.13;;;25.30;99.90;;;;;;1038754;28;20021;-65
2022/08/13 00:51:23;;;;;;;5.82;1.73;;;25.30;99.90;;;;;;1039032;28;20053;-65
2022/08/13 00:51:53;;;;;;;2.58;2.20;;;25.30;99.90;;;;;;1039046;28;20573;-64
2022/08/13 00:52:30;;;;;;;2.30;2.10;;;25.30;99.90;;;;;;1039397;28;20346;-65
2022/08/13 00:53:02;;;;;;;2.17;1.90;;;25.30;99.90;;;;;;1039168;28;20560;-64
2022/08/13 00:53:34;;;;;;;4.10;2.03;;;25.30;99.90;;;;;;1039316;28;20100;-65
2022/08/13 00:54:07;;;;;;;3.15;1.77;;;25.30;99.90;;;;;;1039172;28;20021;-65
2022/08/13 00:54:40;;;;;;;2.55;1.80;;;25.30;99.90;;;;;;1039418;28;20055;-65
2022/08/13 00:55:16;;;;;;;2.28;1.98;;;25.20;99.90;;;;;;1039073;28;20092;-65
2022/08/13 00:55:48;;;;;;;2.72;2.15;;;25.20;99.90;;;;;;1039174;28;20054;-65
2022/08/13 00:56:22;;;;;;;2.28;2.08;;;25.20;99.90;;;;;;1039191;28;20017;-65
2022/08/13 00:56:54;;;;;;;2.80;2.20;;;25.20;99.90;;;;;;1039222;28;20144;-66
2022/08/13 00:57:25;;;;;;;4.05;2.10;;;25.20;99.90;;;;;;1039176;28;20017;-65
2022/08/13 00:57:56;;;;;;;2.35;2.13;;;25.20;99.90;;;;;;1040123;28;20131;-65
2022/08/13 00:58:27;;;;;;;2.27;2.03;;;25.20;99.90;;;;;;1043285;28;20025;-65
2022/08/13 00:59:07;;;;;;;3.22;1.90;;;25.20;99.90;;;;;;1043361;28;20033;-66
2022/08/13 00:59:38;;;;;;;2.33;2.10;;;25.20;99.90;;;;;;1043439;28;20017;-65
2022/08/13 01:00:15;;;;;;;2.67;2.20;;;25.20;99.90;;;;;;1043355;28;20033;-65
2022/08/13 01:00:52;;;;;;;2.72;2.40;;;25.20;99.90;;;;;;1043126;28;20119;-65
2022/08/13 01:01:24;;;;;;;1.98;1.77;;;25.20;99.90;;;;;;1043261;28;20016;-66
2022/08/13 01:01:55;;;;;;;2.20;1.70;;;25.20;99.90;;;;;;1043242;28;20024;-65
2022/08/13 01:02:26;;;;;;;2.13;1.70;;;25.20;99.90;;;;;;1043357;28;20028;-65
2022/08/13 01:02:57;;;;;;;2.50;2.03;;;25.20;99.90;;;;;;1043197;28;20085;-65
2022/08/13 01:03:30;;;;;;;2.60;1.98;;;25.20;99.90;;;;;;1043155;28;20411;-65
2022/08/13 01:04:03;;;;;;;2.42;1.75;;;25.20;99.90;;;;;;1043443;28;20120;-65
2022/08/13 01:04:34;;;;;;;4.70;2.13;;;25.20;99.90;;;;;;1043071;28;20088;-64
2022/08/13 01:05:04;;;;;;;2.50;1.93;;;25.20;99.90;;;;;;1043453;28;20023;-64
2022/08/13 01:05:35;;;;;;;2.63;2.20;;;25.20;99.90;;;;;;1043047;28;20036;-65
2022/08/13 01:06:07;;;;;;;2.30;2.10;;;25.20;99.90;;;;;;1043363;28;20013;-66
2022/08/13 01:06:38;;;;;;;2.60;2.10;;;25.20;99.90;;;;;;1043176;28;20747;-66
2022/08/13 01:07:09;;;;;;;3.07;2.23;;;25.20;99.90;;;;;;1043261;28;20017;-66
2022/08/13 01:07:41;;;;;;;2.60;2.15;;;25.20;99.90;;;;;;1043165;28;20037;-66
2022/08/13 01:08:16;;;;;;;2.20;2.00;;;25.20;99.90;;;;;;1043409;28;20019;-66
2022/08/13 01:08:50;;;;;;;3.88;1.75;;;25.20;99.90;;;;;;1042825;28;20021;-66
2022/08/13 01:09:21;;;;;;;2.42;1.95;;;25.10;99.90;;;;;;1043440;28;20098;-66
2022/08/13 01:09:51;;;;;;;2.57;1.87;;;25.10;99.90;;;;;;1042910;28;20029;-64
2022/08/13 01:10:22;;;;;;;2.50;1.80;;;25.10;99.90;;;;;;1043606;28;20066;-65
2022/08/13 01:10:56;;;;;;;2.97;2.37;;;25.20;99.90;;;;;;1043077;28;20079;-64
2022/08/13 01:11:29;;;;;;;3.20;1.90;;;25.10;99.90;;;;;;1043495;28;20043;-64
2022/08/13 01:12:01;;;;;;;2.17;1.50;;;25.20;99.90;;;;;;1043119;28;20056;-65
2022/08/13 01:12:34;;;;;;;2.25;2.00;;;25.10;99.90;;;;;;1043331;28;20021;-65
2022/08/13 01:13:09;;;;;;;2.17;1.98;;;25.10;99.90;;;;;;1043100;28;20063;-65
2022/08/13 01:13:45;;;;;;;3.05;2.20;;;25.10;99.90;;;;;;1043313;28;20025;-65
2022/08/13 01:14:16;;;;;;;2.63;2.00;;;25.10;99.90;;;;;;1043302;28;20021;-66
2022/08/13 01:14:49;;;;;;;2.20;2.00;;;25.10;99.90;;;;;;1043123;28;20139;-65
2022/08/13 01:15:19;;;;;;;2.70;2.03;;;25.10;99.90;;;;;;1042967;28;20028;-66
2022/08/13 01:15:50;;;;;;;1.77;1.67;;;25.10;99.90;;;;;;1043195;28;20024;-66
2022/08/13 01:16:21;;;;;;;2.30;1.83;;;25.10;99.90;;;;;;1043159;28;20017;-66
2022/08/13 01:16:53;;;;;;;2.95;2.08;;;25.10;99.90;;;;;;1043324;28;20025;-65
2022/08/13 01:17:24;;;;;;;1.80;1.70;;;25.10;99.90;;;;;;1043217;28;20238;-66
2022/08/13 01:17:57;;;;;;;3.58;2.10;;;25.10;99.90;;;;;;1043291;28;20077;-65
2022/08/13 01:18:28;;;;;;;2.05;1.48;;;25.00;99.90;;;;;;1042975;28;20017;-65
2022/08/13 01:19:09;;;;;;;2.10;1.90;;;25.10;99.90;;;;;;1043344;28;20017;-66
2022/08/13 01:19:43;;;;;;;2.72;1.90;;;25.00;99.90;;;;;;1042734;28;20523;-65
2022/08/13 01:20:21;;;;;;;2.47;2.10;;;25.00;99.90;;;;;;1042958;28;20088;-65
2022/08/13 01:21:08;;;;;;;;;;;25.00;99.90;;;;;;1043271;28;20727;-65
2022/08/13 01:21:40;;;;;;;2.45;2.05;;;25.00;99.90;;;;;;1043197;28;19916;-66
2022/08/13 01:22:11;;;;;;;3.70;1.98;;;25.00;99.90;;;;;;1043337;28;20369;-65
2022/08/13 01:22:42;;;;;;;2.83;2.23;;;25.00;99.90;;;;;;1042891;28;20512;-65
2022/08/13 01:23:14;;;;;;;2.80;1.90;;;25.00;99.90;;;;;;1043422;28;20032;-65
2022/08/13 01:23:48;;;;;;;2.10;1.80;;;25.00;99.90;;;;;;1042939;28;20096;-65
2022/08/13 01:24:20;;;;;;;2.72;2.20;;;25.00;99.90;;;;;;1043523;28;20025;-65
2022/08/13 01:24:51;;;;;;;2.00;1.80;;;25.00;99.90;;;;;;1042880;28;20502;-64
2022/08/13 01:25:24;;;;;;;2.00;1.67;;;25.00;99.90;;;;;;1043357;28;20441;-65
2022/08/13 01:25:56;;;;;;;1.70;1.60;;;25.00;99.90;;;;;;1042911;28;20329;-65
2022/08/13 01:26:32;;;;;;;2.15;1.95;;;25.00;99.90;;;;;;1043200;28;20017;-65
2022/08/13 01:27:04;;;;;;;2.30;1.98;;;25.00;99.90;;;;;;1043258;28;20099;-65
2022/08/13 01:27:37;;;;;;;2.65;2.08;;;25.00;99.90;;;;;;1043062;28;20017;-65
2022/08/13 01:28:08;;;;;;;2.10;1.83;;;25.00;99.90;;;;;;1043097;28;20036;-65
2022/08/13 01:28:40;;;;;;;2.45;1.90;;;25.00;99.90;;;;;;1039109;28;20080;-65
2022/08/13 01:29:10;;;;;;;2.03;1.70;;;25.00;99.90;;;;;;1039042;28;20366;-65
2022/08/13 01:29:41;;;;;;;2.70;2.07;;;25.00;99.90;;;;;;1039112;28;20523;-65
2022/08/13 01:30:15;;;;;;;2.23;1.70;;;24.90;99.90;;;;;;1039140;28;20009;-65
2022/08/13 01:30:46;;;;;;;2.25;1.88;;;25.00;99.90;;;;;;1038753;28;20018;-64
2022/08/13 01:31:18;;;;;;;2.63;2.15;;;25.00;99.90;;;;;;1038655;28;20104;-65
2022/08/13 01:31:51;;;;;;;3.45;2.15;;;25.00;99.90;;;;;;1038821;28;20021;-65
2022/08/13 01:32:22;;;;;;;2.13;1.92;;;24.90;99.90;;;;;;1039386;28;20071;-65
2022/08/13 01:32:54;;;;;;;5.83;1.90;;;25.00;99.90;;;;;;1038933;28;20094;-65
2022/08/13 01:33:25;;;;;;;2.80;1.60;;;25.00;99.90;;;;;;1039007;28;20597;-66
2022/08/13 01:33:59;;;;;;;2.17;1.98;;;24.90;99.90;;;;;;1039047;28;20439;-66
2022/08/13 01:34:31;;;;;;;3.25;1.90;;;25.00;99.90;;;;;;1039372;28;20421;-65
2022/08/13 01:35:02;;;;;;;1.77;1.67;;;24.90;99.90;;;;;;1038985;28;20017;-66
2022/08/13 01:35:32;;;;;;;2.30;1.80;;;24.90;99.90;;;;;;1039133;28;20120;-64
2022/08/13 01:36:05;;;;;;;4.77;1.93;;;24.90;99.90;;;;;;1038992;28;20041;-65
2022/08/13 01:36:37;;;;;;;3.33;2.17;;;24.90;99.90;;;;;;1039245;28;20064;-65
2022/08/13 01:37:08;;;;;;;3.25;1.80;;;24.90;99.90;;;;;;1039064;28;20373;-65
2022/08/13 01:37:40;;;;;;;3.03;1.88;;;24.90;99.90;;;;;;1038989;28;20045;-65
2022/08/13 01:38:13;;;;;;;2.58;2.28;;;24.90;99.90;;;;;;1039012;28;20100;-65
2022/08/13 01:38:45;;;;;;;1.77;1.67;;;24.90;99.90;;;;;;1039062;28;20306;-65
2022/08/13 01:39:16;;;;;;;3.15;1.88;;;24.90;99.90;;;;;;1040390;28;20643;-65
2022/08/13 01:39:50;;;;;;;2.38;2.17;;;24.90;99.90;;;;;;1043317;28;20021;-65
2022/08/13 01:40:21;;;;;;;2.60;2.00;;;24.90;99.90;;;;;;1043122;28;20070;-65
2022/08/13 01:40:52;;;;;;;2.53;2.03;;;24.90;99.90;;;;;;1043034;28;20024;-65
2022/08/13 01:41:25;;;;;;;2.17;1.93;;;24.90;99.90;;;;;;1043180;28;20028;-64
2022/08/13 01:41:56;;;;;;;4.75;1.80;;;24.90;99.90;;;;;;1043179;28;20021;-65
2022/08/13 01:42:27;;;;;;;1.70;1.60;;;24.90;99.90;;;;;;1043141;28;20366;-64
2022/08/13 01:42:58;;;;;;;2.70;1.77;;;24.90;99.90;;;;;;1043060;28;20074;-64
2022/08/13 01:43:30;;;;;;;2.00;1.80;;;24.90;99.90;;;;;;1042993;28;20051;-65
2022/08/13 01:44:04;;;;;;;2.35;2.13;;;24.90;99.90;;;;;;1043122;28;20519;-65
2022/08/13 01:44:36;;;;;;;1.65;1.50;;;24.90;99.90;;;;;;1042847;28;20028;-65
2022/08/13 01:45:09;;;;;;;2.97;1.60;;;24.90;99.90;;;;;;1043220;28;20124;-66
2022/08/13 01:45:43;;;;;;;2.50;1.98;;;24.80;99.90;;;;;;1042909;28;20104;-65
2022/08/13 01:46:14;;;;;;;3.33;1.90;;;24.80;99.90;;;;;;1043300;28;20028;-65
2022/08/13 01:50:55;;;;;;;2.42;2.22;;;24.80;99.90;;;;;;1042852;28;20032;-65
2022/08/13 01:51:36;;;;;;;2.57;2.07;;;24.70;99.90;;;;;;1043102;28;20013;-65
2022/08/13 01:52:07;;;;;;;2.90;2.15;;;24.70;99.90;;;;;;1042975;28;20013;-64
2022/08/13 01:52:41;;;;;;;2.58;1.85;;;24.70;99.90;;;;;;1043175;28;20100;-65
2022/08/13 01:53:15;;;;;;;2.13;1.65;;;24.80;99.90;;;;;;1042992;28;20100;-66
2022/08/13 01:53:46;;;;;;;2.60;1.70;;;24.80;99.90;;;;;;1042942;28;20013;-66
2022/08/13 01:54:17;;;;;;;3.45;1.88;;;24.70;99.90;;;;;;1042739;28;20017;-65
2022/08/13 01:54:48;;;;;;;3.00;1.83;;;24.70;99.90;;;;;;1042557;28;20151;-66
2022/08/13 01:55:19;;;;;;;2.50;1.90;;;24.70;99.90;;;;;;1042934;28;20075;-65
2022/08/13 01:55:54;;;;;;;2.57;2.00;;;24.70;99.90;;;;;;1042533;28;20013;-66
2022/08/13 01:56:27;;;;;;;2.33;2.00;;;24.70;99.90;;;;;;1042936;28;20550;-66
2022/08/13 01:57:00;;;;;;;2.55;1.70;;;24.70;99.90;;;;;;1042925;28;20025;-64
2022/08/13 01:57:33;;;;;;;2.63;2.00;;;24.70;99.90;;;;;;1043202;28;20479;-64
2022/08/13 01:58:09;;;;;;;2.65;2.03;;;24.70;99.90;;;;;;1043110;28;20365;-64
2022/08/13 01:58:41;;;;;;;1.77;1.67;;;24.70;99.90;;;;;;1043041;28;20031;-65
2022/08/13 01:59:12;;;;;;;1.88;1.52;;;24.70;99.90;;;;;;1043128;28;20089;-65
2022/08/13 01:59:42;;;;;;;3.20;1.80;;;24.70;99.90;;;;;;1043062;28;20021;-66
2022/08/13 02:00:20;;;;;;;2.53;1.80;;;24.70;99.90;;;;;;1043062;28;20075;-65
2022/08/13 02:00:54;;;;;;;2.67;2.00;;;24.70;99.90;;;;;;1042781;28;20096;-65
2022/08/13 02:01:26;;;;;;;2.92;1.98;;;24.70;99.90;;;;;;1043004;28;20429;-65
2022/08/13 02:01:57;;;;;;;4.18;1.95;;;24.70;99.90;;;;;;1043171;28;20017;-65
2022/08/13 02:02:27;;;;;;;2.43;1.80;;;24.70;99.90;;;;;;1042941;28;20103;-64
2022/08/13 02:03:05;;;;;;;2.30;2.10;;;24.70;99.90;;;;;;1043279;28;20085;-67
2022/08/13 02:03:38;;;;;;;2.30;1.83;;;24.70;99.90;;;;;;1043020;28;20029;-64
2022/08/13 02:04:11;;;;;;;1.80;1.38;;;24.70;99.90;;;;;;1043202;28;20025;-65
2022/08/13 02:04:44;;;;;;;1.85;1.67;;;24.70;99.90;;;;;;1042847;28;20545;-64
2022/08/13 02:05:15;;;;;;;3.97;2.00;;;24.70;99.90;;;;;;1043144;28;20017;-64
2022/08/13 02:05:47;;;;;;;1.67;1.40;;;24.70;99.90;;;;;;1042779;28;20021;-64
2022/08/13 02:06:30;;;;;;;2.40;1.92;;;24.70;99.90;;;;;;1043424;28;20025;-66
2022/08/13 02:07:01;;;;;;;2.13;1.80;;;24.70;99.90;;;;;;1043279;28;20017;-65
2022/08/13 02:07:32;;;;;;;3.23;1.93;;;24.70;99.90;;;;;;1042966;28;20025;-64
2022/08/13 02:08:05;;;;;;;3.63;1.80;;;24.70;99.90;;;;;;1043119;28;20080;-66
2022/08/13 02:08:38;;;;;;;2.00;1.80;;;24.70;99.90;;;;;;1042911;28;20096;-65
2022/08/13 02:09:09;;;;;;;1.55;1.45;;;24.70;99.90;;;;;;1043031;28;20364;-66
2022/08/13 02:09:43;;;;;;;1.97;1.77;;;24.70;99.90;;;;;;1042944;28;20380;-65
2022/08/13 02:10:14;;;;;;;2.55;2.00;;;24.70;99.90;;;;;;1043173;28;20247;-66
2022/08/13 02:10:46;;;;;;;1.83;1.70;;;24.70;99.90;;;;;;1042398;28;20575;-66
2022/08/13 02:11:17;;;;;;;2.53;1.88;;;24.70;99.90;;;;;;1042707;28;20148;-66
2022/08/13 02:11:48;;;;;;;2.08;1.88;;;24.70;99.90;;;;;;1042594;28;20488;-66
2022/08/13 02:12:18;;;;;;;2.53;2.03;;;24.70;99.90;;;;;;1042809;28;20660;-65
2022/08/13 02:12:50;;;;;;;2.23;1.77;;;24.70;99.90;;;;;;1042563;28;20464;-65
2022/08/13 02:13:27;;;;;;;4.32;2.25;;;24.70;99.90;;;;;;1039187;28;20025;-65
2022/08/13 02:13:59;;;;;;;2.67;1.85;;;24.60;99.90;;;;;;1038810;28;20025;-64
2022/08/13 02:14:30;;;;;;;1.73;1.63;;;24.60;99.90;;;;;;1039070;28;20024;-64
2022/08/13 02:15:05;;;;;;;2.53;1.70;;;24.60;99.90;;;;;;1038773;28;20027;-64
2022/08/13 02:15:36;;;;;;;2.30;1.92;;;24.60;99.90;;;;;;1039089;28;20093;-64
2022/08/13 02:16:06;;;;;;;2.10;1.77;;;24.60;99.90;;;;;;1039000;28;20010;-65
2022/08/13 02:16:37;;;;;;;3.43;1.93;;;24.70;99.90;;;;;;1038952;28;20014;-65
2022/08/13 02:17:27;;;;;;;1.93;1.73;;;24.60;99.90;;;;;;1038990;28;20080;-70
2022/08/13 02:18:04;;;;;;;2.17;1.77;;;24.60;99.90;;;;;;1038865;28;20108;-65
2022/08/13 02:18:38;;;;;;;2.03;1.67;;;24.60;99.90;;;;;;1039144;28;20428;-65
2022/08/13 02:19:09;;;;;;;2.40;1.67;;;24.60;99.90;;;;;;1038822;28;20104;-67
2022/08/13 02:19:43;;;;;;;4.53;1.80;;;24.60;99.90;;;;;;1038928;28;20017;-65
2022/08/13 02:20:17;;;;;;;2.00;1.67;;;24.60;99.90;;;;;;1038909;28;20453;-65
2022/08/13 02:20:54;;;;;;;2.17;1.95;;;24.60;99.90;;;;;;1038868;28;20027;-65
2022/08/13 02:21:25;;;;;;;2.00;1.80;;;24.60;99.90;;;;;;1038714;28;20025;-65
2022/08/13 02:21:58;;;;;;;2.28;2.08;;;24.60;99.90;;;;;;1038949;28;20024;-65
2022/08/13 02:22:30;;;;;;;2.15;1.60;;;24.60;99.90;;;;;;1038845;28;20021;-65
2022/08/13 02:23:02;;;;;;;2.42;1.70;;;24.60;99.90;;;;;;1038984;28;20125;-65
2022/08/13 02:23:34;;;;;;;2.45;1.63;;;24.50;99.90;;;;;;1038797;28;20022;-65
2022/08/13 02:24:13;;;;;;;2.58;1.98;;;24.60;99.90;;;;;;1039065;28;20029;-66
2022/08/13 02:24:52;;;;;;;2.45;1.60;;;24.50;99.90;;;;;;1038649;28;20021;-64
2022/08/13 02:25:25;;;;;;;3.55;2.08;;;24.50;99.90;;;;;;1039083;28;20041;-64
2022/08/13 02:25:56;;;;;;;2.03;1.70;;;24.50;99.90;;;;;;1038802;28;20020;-65
2022/08/13 02:26:29;;;;;;;3.20;1.77;;;24.50;99.90;;;;;;1039064;28;20040;-65
2022/08/13 02:27:00;;;;;;;2.08;1.75;;;24.50;99.90;;;;;;1038854;28;20032;-65
2022/08/13 02:27:31;;;;;;;2.20;1.73;;;24.50;99.90;;;;;;1038893;28;20101;-65
2022/08/13 02:28:04;;;;;;;2.97;2.03;;;24.50;99.90;;;;;;1038889;28;20013;-65
2022/08/13 02:28:39;;;;;;;3.05;1.55;;;24.50;99.90;;;;;;1038816;28;20018;-65
2022/08/13 02:29:12;;;;;;;2.15;1.77;;;24.50;99.90;;;;;;1039003;28;20067;-65
2022/08/13 02:29:44;;;;;;;1.80;1.70;;;24.50;99.90;;;;;;1038822;28;20013;-65
2022/08/13 02:30:16;;;;;;;2.30;1.90;;;24.50;99.90;;;;;;1038907;28;20021;-64
2022/08/13 02:30:49;;;;;;;1.95;1.70;;;24.50;99.90;;;;;;1038761;28;20417;-64
2022/08/13 02:31:19;;;;;;;2.88;2.13;;;24.40;99.90;;;;;;1038812;28;20049;-65
2022/08/13 02:31:50;;;;;;;2.10;1.90;;;24.40;99.90;;;;;;1038591;28;20057;-65
2022/08/13 02:32:25;;;;;;;2.47;1.90;;;24.40;99.90;;;;;;1039192;28;20056;-65
2022/08/13 02:33:00;;;;;;;3.70;2.10;;;24.40;99.90;;;;;;1038652;28;20021;-65
2022/08/13 02:33:30;;;;;;;2.38;1.70;;;24.40;99.90;;;;;;1039009;28;20108;-65
2022/08/13 02:34:01;;;;;;;2.20;2.00;;;24.40;99.90;;;;;;1038857;28;20022;-65
2022/08/13 02:34:32;;;;;;;1.50;1.40;;;24.40;99.90;;;;;;1039010;28;20027;-65
2022/08/13 02:35:04;;;;;;;2.20;1.73;;;24.40;99.90;;;;;;1038763;28;20026;-65
2022/08/13 02:35:35;;;;;;;2.03;1.83;;;24.40;99.90;;;;;;1040863;28;20033;-65
2022/08/13 02:36:10;;;;;;;3.88;1.90;;;24.40;99.90;;;;;;1042740;28;20028;-65
2022/08/13 02:36:41;;;;;;;6.28;2.00;;;24.40;99.90;;;;;;1043249;28;20139;-66
2022/08/13 02:37:14;;;;;;;2.05;1.50;;;24.40;99.90;;;;;;1042837;28;20017;-65
2022/08/13 02:37:47;;;;;;;2.47;2.20;;;24.40;99.90;;;;;;1043064;28;20028;-65
2022/08/13 02:38:18;;;;;;;2.55;1.98;;;24.40;99.90;;;;;;1042597;28;20111;-65
2022/08/13 02:39:01;;;;;;;2.73;1.90;;;24.40;99.90;;;;;;1042663;28;20029;-66
2022/08/13 02:39:31;;;;;;;2.15;1.60;;;24.40;99.90;;;;;;1042663;28;20020;-65
2022/08/13 02:41:37;;;;;;;2.23;1.50;;;24.40;99.90;;;;;;1042873;28;20213;-65
2022/08/13 02:41:46;;;;;;;2.65;1.85;;;24.40;99.90;;;;;;1043222;28;20118;-65
2022/08/13 02:42:18;;;;;;;2.20;1.75;;;24.40;99.90;;;;;;1043073;28;20029;-65
2022/08/13 02:42:49;;;;;;;2.95;1.77;;;24.40;99.90;;;;;;1042837;28;20024;-65
2022/08/13 02:43:20;;;;;;;2.50;1.65;;;24.40;99.90;;;;;;1043113;28;20029;-65
2022/08/13 02:43:51;;;;;;;2.50;2.07;;;24.40;99.90;;;;;;1042870;28;20112;-65
2022/08/13 02:44:25;;;;;;;2.67;1.73;;;24.40;99.90;;;;;;1043267;28;20029;-65
2022/08/13 02:44:56;;;;;;;2.95;1.92;;;24.40;99.90;;;;;;1042961;28;20400;-65
2022/08/13 02:45:28;;;;;;;1.80;1.50;;;24.40;99.90;;;;;;1042930;28;20403;-65
2022/08/13 02:46:03;;;;;;;5.50;1.90;;;24.40;99.90;;;;;;1043061;28;20039;-65
2022/08/13 02:46:34;;;;;;;2.92;1.98;;;24.40;99.90;;;;;;1043030;28;20100;-64
2022/08/13 02:47:05;;;;;;;3.00;1.90;;;24.40;99.90;;;;;;1043067;28;20021;-66
2022/08/13 02:47:36;;;;;;;2.35;1.67;;;24.40;99.90;;;;;;1042996;28;20021;-65
2022/08/13 02:48:06;;;;;;;4.67;2.00;;;24.40;99.90;;;;;;1043043;28;20071;-64
2022/08/13 02:48:37;;;;;;;2.57;1.83;;;24.40;99.90;;;;;;1042838;28;20104;-64
2022/08/13 02:49:09;;;;;;;2.43;1.50;;;24.40;99.90;;;;;;1043195;28;20013;-65
2022/08/13 02:49:40;;;;;;;2.45;2.03;;;24.90;99.90;;;;;;1042748;28;20002;-65
2022/08/13 02:50:11;;;;;;;1.98;1.75;;;24.40;99.90;;;;;;1043048;28;20528;-64
2022/08/13 02:50:45;;;;;;;2.35;1.98;;;24.30;99.90;;;;;;1039415;28;20605;-65
2022/08/13 02:51:16;;;;;;;2.10;1.90;;;24.30;99.90;;;;;;1039066;28;20028;-65
2022/08/13 02:51:49;;;;;;;3.10;1.90;;;24.30;99.90;;;;;;1038876;28;20013;-64
2022/08/13 02:52:20;;;;;;;2.88;2.05;;;24.30;99.90;;;;;;1038973;28;20097;-65
2022/08/13 02:52:51;;;;;;;2.47;1.95;;;24.30;99.90;;;;;;1038599;28;20653;-65
2022/08/13 02:53:23;;;;;;;2.78;1.92;;;24.30;99.90;;;;;;1039162;28;20062;-65
2022/08/13 02:53:53;;;;;;;2.33;1.70;;;24.30;99.90;;;;;;1038599;28;20021;-65
2022/08/13 02:54:25;;;;;;;2.43;1.87;;;24.30;99.90;;;;;;1039265;28;20014;-65
2022/08/13 02:54:57;;;;;;;2.63;2.10;;;24.30;99.90;;;;;;1038728;28;20576;-65
2022/08/13 02:55:30;;;;;;;4.00;2.25;;;24.30;99.90;;;;;;1038999;28;20014;-65
2022/08/13 02:56:01;;;;;;;2.95;1.70;;;24.30;99.90;;;;;;1038705;28;20152;-65
2022/08/13 02:56:31;;;;;;;2.50;1.97;;;24.30;99.90;;;;;;1038932;28;20059;-65
2022/08/13 02:57:02;;;;;;;2.15;1.80;;;24.30;99.90;;;;;;1038974;28;20735;-65
2022/08/13 02:57:33;;;;;;;2.10;1.67;;;24.30;99.90;;;;;;1038967;28;20021;-65
2022/08/13 02:58:04;;;;;;;3.30;1.73;;;24.30;99.90;;;;;;1038851;28;20040;-65